createdAt,value
2019-03-31T00:00:02.994Z,26.68
2019-03-31T00:02:32.354Z,26.40
2019-03-31T00:05:01.690Z,27.13
2019-03-31T00:07:31.010Z,25.97
2019-03-31T00:10:00.394Z,25.72
2019-03-31T00:12:29.885Z,25.37
2019-03-31T00:14:59.284Z,26.30
2019-03-31T00:17:28.711Z,24.60
2019-03-31T00:19:58.119Z,24.37
2019-03-31T00:22:27.494Z,24.55
2019-03-31T00:24:56.934Z,24.80
2019-03-31T00:27:26.278Z,25.97
2019-03-31T00:29:55.977Z,26.45
2019-03-31T00:32:25.334Z,26.27
2019-03-31T00:34:56.000Z,26.90
2019-03-31T00:37:25.349Z,26.60
2019-03-31T00:39:54.701Z,27.25
2019-03-31T00:42:24.030Z,27.70
2019-03-31T00:44:53.355Z,27.52
2019-03-31T00:47:23.232Z,28.15
2019-03-31T00:49:52.527Z,26.93
2019-03-31T00:52:21.851Z,26.85
2019-03-31T00:54:51.222Z,26.15
2019-03-31T00:57:20.951Z,26.93
2019-03-31T00:59:50.282Z,27.63
2019-03-31T01:02:23.799Z,26.23
2019-03-31T01:04:53.419Z,27.75
2019-03-31T01:07:25.962Z,27.37
2019-03-31T01:09:56.993Z,27.35
2019-03-31T01:12:28.159Z,27.52
2019-03-31T01:14:57.747Z,26.62
2019-03-31T01:17:27.762Z,26.75
2019-03-31T01:19:58.894Z,27.37
2019-03-31T01:22:28.880Z,27.17
2019-03-31T01:24:58.305Z,28.73
2019-03-31T01:27:28.346Z,29.05
2019-03-31T01:29:57.667Z,29.20
2019-03-31T01:32:27.222Z,27.65
2019-03-31T01:34:56.863Z,28.05
2019-03-31T01:37:26.421Z,27.10
2019-03-31T01:39:55.826Z,27.98
2019-03-31T01:42:25.238Z,27.67
2019-03-31T02:11:31.112Z,28.55
2019-03-31T02:14:00.443Z,27.70
2019-03-31T02:16:29.898Z,28.62
2019-03-31T02:18:59.251Z,27.75
2019-03-31T02:21:28.583Z,28.65
2019-03-31T02:23:57.935Z,27.10
2019-03-31T02:26:27.330Z,27.42
2019-03-31T02:28:56.770Z,28.60
2019-03-31T02:31:26.216Z,29.20
2019-03-31T02:33:55.519Z,27.82
2019-03-31T02:36:24.870Z,27.20
2019-03-31T02:38:54.222Z,27.70
2019-03-31T02:41:23.636Z,26.87
2019-03-31T02:43:53.051Z,27.90
2019-03-31T02:46:22.375Z,27.65
2019-03-31T02:48:51.787Z,27.43
2019-03-31T02:51:21.527Z,27.98
2019-03-31T02:53:51.009Z,28.52
2019-03-31T02:56:22.377Z,27.75
2019-03-31T02:58:53.127Z,29.45
2019-03-31T03:01:24.515Z,28.33
2019-03-31T03:03:54.315Z,30.52
2019-03-31T03:06:25.733Z,29.70
2019-03-31T03:08:57.022Z,29.60
2019-03-31T03:11:29.802Z,30.43
2019-03-31T03:14:01.122Z,29.55
2019-03-31T03:16:30.507Z,29.87
2019-03-31T03:19:00.240Z,31.50
2019-03-31T03:21:29.669Z,31.07
2019-03-31T03:23:58.993Z,31.85
2019-03-31T03:26:28.683Z,30.20
2019-03-31T03:28:59.317Z,30.40
2019-03-31T03:31:32.342Z,29.18
2019-03-31T03:34:02.224Z,29.00
2019-03-31T03:36:31.633Z,28.80
2019-03-31T03:39:01.297Z,27.80
2019-03-31T03:41:30.635Z,29.27
2019-03-31T03:44:02.555Z,28.30
2019-03-31T03:46:31.319Z,28.67
2019-03-31T03:49:00.873Z,28.92
2019-03-31T03:51:30.317Z,28.10
2019-03-31T03:53:59.642Z,28.27
2019-03-31T03:56:29.342Z,27.58
2019-03-31T03:58:58.999Z,28.23
2019-03-31T04:01:29.664Z,32.03
2019-03-31T04:03:59.048Z,36.17
2019-03-31T04:06:28.476Z,35.73
2019-03-31T04:08:58.168Z,35.00
2019-03-31T04:11:29.923Z,33.15
2019-03-31T04:13:59.441Z,32.20
2019-03-31T04:16:28.966Z,31.87
2019-03-31T04:18:58.381Z,30.10
2019-03-31T04:21:28.261Z,30.15
2019-03-31T04:23:57.940Z,28.77
2019-03-31T04:26:27.372Z,28.10
2019-03-31T04:28:56.881Z,28.10
2019-03-31T04:31:26.649Z,27.48
2019-03-31T04:33:55.954Z,27.32
2019-03-31T04:36:25.367Z,27.70
2019-03-31T04:38:54.889Z,29.00
2019-03-31T04:41:24.494Z,28.65
2019-03-31T04:43:54.166Z,27.65
2019-03-31T04:46:23.658Z,28.50
2019-03-31T04:48:53.051Z,26.73
2019-03-31T04:51:22.394Z,27.67
2019-03-31T04:53:51.835Z,28.27
2019-03-31T04:56:21.297Z,27.60
2019-03-31T04:58:50.768Z,24.85
2019-03-31T05:01:20.221Z,25.30
2019-03-31T05:04:03.476Z,24.35
2019-03-31T05:06:20.658Z,25.17
2019-03-31T05:08:49.973Z,27.95
2019-03-31T05:11:19.647Z,25.83
2019-03-31T05:13:49.081Z,24.45
2019-03-31T05:16:18.376Z,25.25
2019-03-31T05:18:47.698Z,23.87
2019-03-31T05:21:17.091Z,24.63
2019-03-31T05:23:46.510Z,23.77
2019-03-31T05:26:15.866Z,24.07
2019-03-31T05:28:45.199Z,23.18
2019-03-31T05:31:14.594Z,22.47
2019-03-31T05:33:43.939Z,22.45
2019-03-31T05:36:13.364Z,22.17
2019-03-31T05:38:42.686Z,21.35
2019-03-31T05:41:12.017Z,20.95
2019-03-31T05:43:41.379Z,20.75
2019-03-31T05:46:10.792Z,20.37
2019-03-31T05:48:40.202Z,19.67
2019-03-31T05:51:09.530Z,19.60
2019-03-31T05:53:38.831Z,18.65
2019-03-31T05:56:08.167Z,18.87
2019-03-31T05:58:37.515Z,18.60
2019-03-31T06:01:06.955Z,18.23
2019-03-31T06:03:36.534Z,17.80
2019-03-31T06:06:05.882Z,18.42
2019-03-31T06:08:35.550Z,17.10
2019-03-31T06:11:04.974Z,16.70
2019-03-31T06:13:34.452Z,16.87
2019-03-31T06:16:03.927Z,16.77
2019-03-31T06:18:33.382Z,16.87
2019-03-31T06:21:02.710Z,16.17
2019-03-31T06:23:32.054Z,16.00
2019-03-31T06:26:01.456Z,16.10
2019-03-31T06:28:30.911Z,15.93
2019-03-31T06:31:00.282Z,16.75
2019-03-31T06:33:29.599Z,15.35
2019-03-31T06:35:59.469Z,15.80
2019-03-31T06:38:28.890Z,15.05
2019-03-31T06:40:58.418Z,14.70
2019-03-31T06:43:28.406Z,14.87
2019-03-31T06:45:57.716Z,15.25
2019-03-31T06:48:27.017Z,15.53
2019-03-31T06:50:56.520Z,15.13
2019-03-31T06:53:26.247Z,15.68
2019-03-31T06:55:55.651Z,15.98
2019-03-31T06:58:25.078Z,16.07
2019-03-31T07:00:54.450Z,17.13
2019-03-31T07:03:24.174Z,16.30
2019-03-31T07:05:54.199Z,16.45
2019-03-31T07:08:23.556Z,15.90
2019-03-31T07:10:53.063Z,17.95
2019-03-31T07:13:22.495Z,17.90
2019-03-31T07:15:51.863Z,17.55
2019-03-31T07:18:21.276Z,18.40
2019-03-31T07:20:50.718Z,18.23
2019-03-31T07:23:20.226Z,18.92
2019-03-31T07:25:49.627Z,18.45
2019-03-31T07:28:18.974Z,18.67
2019-03-31T07:30:48.318Z,18.37
2019-03-31T07:33:17.664Z,18.00
2019-03-31T07:35:47.232Z,16.73
2019-03-31T07:38:16.888Z,16.73
2019-03-31T07:40:47.356Z,17.10
2019-03-31T07:43:17.165Z,17.27
2019-03-31T07:45:46.938Z,17.52
2019-03-31T07:48:16.266Z,17.60
2019-03-31T07:50:45.579Z,17.32
2019-03-31T07:53:14.901Z,16.90
2019-03-31T07:55:44.410Z,17.52
2019-03-31T07:58:13.905Z,17.40
2019-03-31T08:00:43.223Z,17.60
2019-03-31T08:03:12.611Z,17.67
2019-03-31T08:05:42.258Z,19.12
2019-03-31T08:08:11.638Z,18.57
2019-03-31T08:10:41.031Z,18.87
2019-03-31T08:13:10.394Z,18.55
2019-03-31T08:15:40.078Z,19.10
2019-03-31T08:18:09.515Z,18.12
2019-03-31T08:20:38.858Z,18.27
2019-03-31T08:23:08.335Z,18.90
2019-03-31T08:25:37.819Z,19.05
2019-03-31T08:28:07.251Z,18.60
2019-03-31T08:30:36.582Z,18.23
2019-03-31T08:33:06.100Z,18.73
2019-03-31T08:35:46.756Z,19.00
2019-03-31T08:38:06.439Z,18.23
2019-03-31T08:40:35.803Z,19.37
2019-03-31T08:43:05.211Z,18.45
2019-03-31T08:45:35.118Z,19.15
2019-03-31T08:48:04.872Z,18.95
2019-03-31T08:50:34.927Z,19.82
2019-03-31T08:53:04.687Z,18.67
2019-03-31T08:55:34.398Z,18.85
2019-03-31T08:58:04.022Z,18.80
2019-03-31T09:00:43.938Z,19.67
2019-03-31T09:03:13.753Z,20.02
2019-03-31T09:05:43.224Z,19.77
2019-03-31T09:08:12.688Z,20.27
2019-03-31T09:10:42.013Z,19.60
2019-03-31T09:13:11.361Z,20.35
2019-03-31T09:15:40.722Z,20.10
2019-03-31T09:18:10.028Z,19.82
2019-03-31T09:20:39.358Z,19.40
2019-03-31T09:23:08.685Z,20.48
2019-03-31T09:25:38.099Z,20.57
2019-03-31T09:28:07.750Z,21.42
2019-03-31T09:30:37.158Z,19.85
2019-03-31T09:33:06.641Z,20.60
2019-03-31T09:35:35.933Z,21.15
2019-03-31T09:38:05.298Z,21.73
2019-03-31T09:40:35.226Z,21.65
2019-03-31T09:43:04.598Z,21.35
2019-03-31T09:45:34.075Z,22.00
2019-03-31T09:48:03.492Z,21.80
2019-03-31T09:50:32.827Z,22.02
2019-03-31T09:53:02.802Z,21.87
2019-03-31T09:55:32.411Z,22.07
2019-03-31T09:58:01.810Z,23.83
2019-03-31T10:00:44.615Z,22.22
2019-03-31T10:03:15.430Z,22.75
2019-03-31T10:05:47.698Z,22.80
2019-03-31T10:08:16.021Z,22.48
2019-03-31T10:10:45.478Z,23.07
2019-03-31T10:13:15.020Z,23.42
2019-03-31T10:15:45.478Z,22.80
2019-03-31T10:18:18.177Z,23.90
2019-03-31T10:20:46.893Z,24.07
2019-03-31T10:23:16.342Z,24.75
2019-03-31T10:25:46.154Z,24.30
2019-03-31T10:28:15.497Z,23.55
2019-03-31T10:30:44.863Z,23.95
2019-03-31T10:33:14.299Z,24.00
2019-03-31T10:35:43.684Z,24.52
2019-03-31T10:38:13.081Z,23.60
2019-03-31T10:40:42.479Z,25.08
2019-03-31T10:43:11.980Z,23.57
2019-03-31T10:45:41.544Z,24.18
2019-03-31T10:48:20.496Z,24.05
2019-03-31T10:50:42.211Z,23.43
2019-03-31T10:53:11.928Z,24.12
2019-03-31T10:55:41.371Z,24.63
2019-03-31T10:58:10.827Z,22.10
2019-03-31T11:00:40.330Z,23.05
2019-03-31T11:03:10.063Z,20.40
2019-03-31T11:05:39.578Z,21.57
2019-03-31T11:08:09.353Z,17.92
2019-03-31T11:10:38.834Z,18.02
2019-03-31T11:13:08.337Z,18.48
2019-03-31T11:15:37.827Z,17.67
2019-03-31T11:18:07.232Z,17.77
2019-03-31T11:20:36.723Z,15.95
2019-03-31T11:23:23.950Z,17.55
2019-03-31T11:25:53.296Z,18.95
2019-03-31T11:28:22.703Z,19.32
2019-03-31T11:30:52.039Z,18.37
2019-03-31T11:33:21.623Z,18.32
2019-03-31T11:35:51.075Z,17.75
2019-03-31T11:38:20.701Z,18.73
2019-03-31T11:40:50.083Z,17.65
2019-03-31T11:43:19.410Z,16.20
2019-03-31T11:45:48.866Z,15.48
2019-03-31T11:48:18.303Z,16.10
2019-03-31T11:50:47.749Z,16.23
2019-03-31T11:53:17.142Z,14.50
2019-03-31T11:55:46.545Z,14.25
2019-03-31T11:58:15.983Z,15.13
2019-03-31T12:00:51.758Z,16.12
2019-03-31T12:03:21.086Z,16.57
2019-03-31T12:05:50.516Z,15.63
2019-03-31T12:08:19.882Z,15.10
2019-03-31T12:10:49.270Z,15.18
2019-03-31T12:13:18.592Z,14.90
2019-03-31T12:15:48.746Z,16.48
2019-03-31T12:18:18.199Z,14.38
2019-03-31T12:20:47.899Z,12.75
2019-03-31T12:23:17.242Z,13.05
2019-03-31T12:25:47.015Z,13.03
2019-03-31T12:28:16.406Z,13.93
2019-03-31T12:30:45.863Z,13.58
2019-03-31T12:33:50.747Z,13.50
2019-03-31T12:36:20.343Z,12.90
2019-03-31T12:38:49.735Z,13.58
2019-03-31T12:41:20.652Z,13.60
2019-03-31T12:43:50.134Z,13.10
2019-03-31T12:46:19.567Z,14.15
2019-03-31T12:48:48.970Z,13.70
2019-03-31T12:51:18.487Z,13.10
2019-03-31T12:53:50.951Z,12.65
2019-03-31T12:56:18.935Z,13.20
2019-03-31T12:58:48.395Z,13.58
2019-03-31T13:01:17.969Z,13.80
2019-03-31T13:03:47.331Z,13.90
2019-03-31T13:06:16.816Z,13.25
2019-03-31T13:08:46.159Z,13.03
2019-03-31T13:11:15.584Z,13.32
2019-03-31T13:13:44.973Z,13.60
2019-03-31T13:16:14.411Z,11.57
2019-03-31T13:18:44.721Z,11.80
2019-03-31T13:21:14.084Z,11.97
2019-03-31T13:23:43.507Z,12.30
2019-03-31T13:26:12.963Z,12.65
2019-03-31T13:28:42.744Z,12.85
2019-03-31T13:31:12.123Z,12.40
2019-03-31T13:33:41.465Z,13.03
2019-03-31T13:36:10.959Z,12.07
2019-03-31T13:38:40.369Z,13.10
2019-03-31T13:41:09.792Z,12.95
2019-03-31T13:43:39.211Z,12.13
2019-03-31T13:46:08.712Z,11.78
2019-03-31T13:48:38.183Z,11.53
2019-03-31T13:51:07.576Z,12.18
2019-03-31T13:53:37.135Z,11.75
2019-03-31T13:56:06.576Z,11.90
2019-03-31T13:58:36.585Z,11.95
2019-03-31T14:01:07.301Z,11.12
2019-03-31T14:03:37.055Z,11.48
2019-03-31T14:06:06.543Z,12.43
2019-03-31T14:08:36.204Z,12.33
2019-03-31T14:11:05.607Z,11.70
2019-03-31T14:13:35.111Z,11.85
2019-03-31T14:16:04.612Z,11.70
2019-03-31T14:18:33.979Z,11.40
2019-03-31T14:21:03.392Z,11.55
2019-03-31T14:23:32.801Z,11.70
2019-03-31T14:26:02.283Z,10.75
2019-03-31T14:28:31.660Z,10.72
2019-03-31T14:31:01.076Z,10.27
2019-03-31T14:33:30.479Z,10.45
2019-03-31T14:36:00.056Z,10.98
2019-03-31T14:38:39.988Z,11.33
2019-03-31T14:41:01.174Z,11.20
2019-03-31T14:43:30.706Z,11.08
2019-03-31T14:46:00.071Z,10.88
2019-03-31T14:48:29.420Z,10.00
2019-03-31T14:50:58.811Z,10.82
2019-03-31T14:53:28.180Z,10.80
2019-03-31T14:56:01.050Z,10.38
2019-03-31T14:58:30.460Z,10.48
2019-03-31T15:00:59.828Z,10.60
2019-03-31T15:03:29.691Z,10.28
2019-03-31T15:05:59.407Z,10.97
2019-03-31T15:08:28.867Z,10.50
2019-03-31T15:10:58.262Z,8.20
2019-03-31T15:13:27.624Z,7.08
2019-03-31T15:15:56.988Z,6.70
2019-03-31T15:18:26.676Z,7.35
2019-03-31T15:20:56.112Z,6.80
2019-03-31T15:23:28.957Z,7.00
2019-03-31T15:25:56.745Z,6.85
2019-03-31T15:28:26.152Z,7.03
2019-03-31T15:30:55.624Z,7.70
2019-03-31T15:33:25.043Z,7.62
2019-03-31T15:35:54.599Z,8.30
2019-03-31T15:38:24.064Z,8.28
2019-03-31T15:40:53.480Z,7.85
2019-03-31T15:43:22.867Z,7.77
2019-03-31T15:45:52.324Z,7.12
2019-03-31T15:48:21.761Z,7.03
2019-03-31T15:50:51.263Z,9.30
2019-03-31T15:53:20.663Z,9.75
2019-03-31T15:55:50.107Z,9.93
2019-03-31T15:58:19.927Z,9.93
2019-03-31T16:00:49.329Z,9.80
2019-03-31T16:03:18.676Z,10.13
2019-03-31T16:05:48.352Z,9.98
2019-03-31T16:08:17.253Z,9.35
2019-03-31T16:10:46.085Z,9.53
2019-03-31T16:13:15.020Z,10.00
2019-03-31T16:15:43.911Z,10.03
2019-03-31T16:18:12.809Z,9.83
2019-03-31T16:20:41.707Z,10.33
2019-03-31T16:23:10.531Z,10.18
2019-03-31T16:25:43.047Z,12.07
2019-03-31T16:28:11.943Z,10.85
2019-03-31T16:30:40.940Z,10.68
2019-03-31T16:33:09.936Z,10.98
2019-03-31T16:35:38.903Z,10.77
2019-03-31T16:38:07.890Z,11.00
2019-03-31T16:40:36.738Z,10.45
2019-03-31T16:43:05.711Z,10.32
2019-03-31T16:45:34.723Z,10.15
2019-03-31T16:48:03.777Z,10.95
2019-03-31T16:50:33.109Z,11.65
2019-03-31T16:53:02.100Z,12.13
2019-03-31T16:55:31.140Z,12.07
2019-03-31T16:58:00.133Z,11.70
2019-03-31T17:00:29.108Z,11.78
2019-03-31T17:02:58.427Z,11.57
2019-03-31T17:05:27.451Z,11.97
2019-03-31T17:07:56.467Z,11.80
2019-03-31T17:10:25.453Z,11.70
2019-03-31T17:12:54.475Z,11.85
2019-03-31T17:15:23.469Z,11.80
2019-03-31T17:17:52.995Z,11.90
2019-03-31T17:20:22.012Z,11.50
2019-03-31T17:22:50.987Z,11.65
2019-03-31T17:25:20.034Z,11.70
2019-03-31T17:27:49.016Z,12.05
2019-03-31T17:30:17.985Z,12.00
2019-03-31T17:32:47.050Z,12.10
2019-03-31T17:35:16.243Z,12.20
2019-03-31T17:37:45.357Z,12.90
2019-03-31T17:40:14.567Z,11.50
2019-03-31T17:42:43.691Z,11.18
2019-03-31T17:45:12.822Z,11.90
2019-03-31T17:47:41.754Z,12.30
2019-03-31T17:50:10.856Z,12.33
2019-03-31T17:52:40.026Z,11.93
2019-03-31T17:55:09.146Z,11.90
2019-03-31T17:57:38.168Z,12.47
2019-03-31T18:00:08.972Z,12.10
2019-03-31T18:02:37.815Z,12.25
2019-03-31T18:05:07.817Z,12.60
2019-03-31T18:07:37.266Z,12.90
2019-03-31T18:10:20.186Z,12.58
2019-03-31T18:12:37.381Z,12.40
2019-03-31T18:15:06.474Z,14.03
2019-03-31T18:17:35.339Z,14.13
2019-03-31T18:20:04.868Z,12.88
2019-03-31T18:22:33.640Z,12.95
2019-03-31T18:25:02.854Z,11.55
2019-03-31T18:27:31.865Z,11.75
2019-03-31T18:30:00.782Z,11.55
2019-03-31T18:32:29.619Z,10.82
2019-03-31T18:34:58.919Z,10.68
2019-03-31T18:37:27.822Z,10.00
2019-03-31T18:39:56.747Z,10.23
2019-03-31T18:42:25.642Z,9.60
2019-03-31T18:44:54.569Z,9.08
2019-03-31T18:47:24.306Z,8.63
2019-03-31T18:49:53.134Z,8.30
2019-03-31T18:52:21.963Z,8.65
2019-03-31T18:55:09.872Z,8.25
2019-03-31T18:57:52.859Z,8.35
2019-03-31T19:00:35.862Z,8.20
2019-03-31T19:03:22.358Z,7.80
2019-03-31T19:06:09.639Z,7.65
2019-03-31T19:08:48.669Z,7.60
2019-03-31T19:11:30.934Z,7.83
2019-03-31T19:14:10.367Z,7.58
2019-03-31T19:16:49.723Z,7.67
2019-03-31T19:19:30.982Z,7.95
2019-03-31T19:22:12.883Z,8.18
2019-03-31T19:24:59.751Z,7.80
2019-03-31T19:27:38.311Z,8.25
2019-03-31T19:30:24.895Z,8.25
2019-03-31T19:33:15.987Z,9.43
2019-03-31T19:36:10.005Z,9.80
2019-03-31T19:38:56.891Z,11.83
2019-03-31T19:41:40.938Z,13.10
2019-03-31T19:44:21.658Z,14.25
2019-03-31T19:46:59.809Z,16.00
2019-03-31T19:49:44.508Z,16.32
2019-03-31T19:52:47.806Z,17.37
2019-03-31T19:55:32.437Z,17.90
2019-03-31T19:58:19.300Z,17.87
2019-03-31T20:01:06.856Z,18.92
2019-03-31T20:03:59.890Z,18.83
2019-03-31T20:06:40.295Z,19.37
2019-03-31T20:09:15.859Z,20.80
2019-03-31T20:12:06.964Z,20.35
2019-03-31T20:14:46.095Z,21.60
2019-03-31T20:17:23.173Z,21.90
2019-03-31T20:20:26.708Z,21.77
2019-03-31T20:23:17.260Z,22.50
2019-03-31T20:26:03.698Z,22.98
2019-03-31T20:28:38.474Z,31.40
2019-03-31T20:31:25.410Z,29.30
2019-03-31T20:34:06.310Z,27.27
2019-03-31T20:37:00.215Z,27.75
2019-03-31T20:39:35.359Z,28.80
2019-03-31T20:42:13.506Z,29.75
2019-03-31T20:44:43.519Z,30.20
2019-03-31T20:47:12.346Z,30.25
2019-03-31T20:49:41.211Z,31.93
2019-03-31T20:52:10.067Z,31.17
2019-03-31T20:54:38.981Z,31.57
2019-03-31T20:57:07.794Z,31.82
2019-03-31T20:59:46.050Z,32.53
2019-03-31T21:02:15.035Z,32.78
2019-03-31T21:04:43.876Z,33.43
2019-03-31T21:07:12.677Z,34.08
2019-03-31T21:09:45.137Z,33.65
2019-03-31T21:12:12.378Z,34.08
2019-03-31T21:14:41.332Z,33.75
2019-03-31T21:17:10.150Z,33.42
2019-03-31T21:19:39.230Z,33.98
2019-03-31T21:22:08.073Z,33.20
2019-03-31T21:24:37.034Z,33.80
2019-03-31T21:27:05.902Z,34.15
2019-03-31T21:29:35.198Z,33.92
2019-03-31T21:32:04.679Z,34.20
2019-03-31T21:34:34.424Z,33.95
2019-03-31T21:37:06.196Z,35.40
2019-03-31T21:39:34.990Z,35.95
2019-03-31T21:42:03.992Z,35.70
2019-03-31T21:44:33.706Z,35.00
2019-03-31T21:47:02.603Z,35.38
2019-03-31T21:49:31.507Z,35.23
2019-03-31T21:52:00.381Z,36.70
2019-03-31T21:54:29.279Z,36.70
2019-03-31T21:56:58.853Z,35.95
2019-03-31T21:59:27.824Z,37.50
2019-03-31T22:01:56.814Z,36.95
2019-03-31T22:04:26.511Z,38.23
2019-03-31T22:07:02.377Z,38.08
2019-03-31T22:09:31.336Z,38.23
2019-03-31T22:12:00.383Z,38.10
2019-03-31T22:14:29.214Z,38.48
2019-03-31T22:16:58.067Z,39.95
2019-03-31T22:19:26.862Z,39.88
2019-03-31T22:21:55.702Z,39.95
2019-03-31T22:24:24.838Z,39.53
2019-03-31T22:26:53.642Z,39.95
2019-03-31T22:29:22.549Z,40.15
2019-03-31T22:31:51.356Z,41.00
2019-03-31T22:34:20.210Z,41.02
2019-03-31T22:36:49.152Z,41.63
2019-03-31T22:39:18.026Z,41.73
2019-03-31T22:41:46.887Z,42.50
2019-03-31T22:44:15.788Z,42.85
2019-03-31T22:46:54.174Z,41.73
2019-03-31T22:49:15.122Z,41.75
2019-03-31T22:51:44.019Z,41.85
2019-03-31T22:54:12.825Z,42.40
2019-03-31T22:56:41.634Z,42.70
2019-03-31T22:59:10.758Z,42.70
2019-03-31T23:01:39.571Z,43.50
2019-03-31T23:04:08.412Z,42.62
2019-03-31T23:06:37.298Z,43.78
2019-03-31T23:09:07.127Z,44.13
2019-03-31T23:11:36.204Z,44.55
2019-03-31T23:14:05.132Z,44.13
2019-03-31T23:16:34.503Z,44.50
2019-03-31T23:19:03.456Z,45.70
2019-03-31T23:21:32.343Z,44.67
2019-03-31T23:24:01.158Z,45.95
2019-03-31T23:26:29.970Z,45.67
2019-03-31T23:28:58.874Z,48.00
2019-03-31T23:31:27.686Z,46.40
2019-03-31T23:33:56.482Z,46.37
2019-03-31T23:36:25.414Z,46.28
2019-03-31T23:38:54.483Z,45.37
2019-03-31T23:41:23.288Z,47.05
2019-03-31T23:43:52.118Z,47.90
2019-03-31T23:46:20.918Z,48.45
2019-03-31T23:48:49.748Z,48.35
2019-03-31T23:51:18.675Z,47.30
2019-03-31T23:53:47.542Z,46.95
2019-03-31T23:56:16.337Z,47.90
2019-03-31T23:58:45.735Z,48.28
